sensor_id;sensor_type;location;lat;lon;timestamp;P1;durP1;ratioP1;P2;durP2;ratioP2
56122;SDS011;42426;46.104;19.656;2023-04-24T00:00:13;13.98;;;9.10;;
56122;SDS011;42426;46.104;19.656;2023-04-24T00:02:40;10.40;;;8.90;;
56122;SDS011;42426;46.104;19.656;2023-04-24T00:05:13;12.20;;;9.23;;
56122;SDS011;42426;46.104;19.656;2023-04-24T00:07:40;12.32;;;9.40;;
56122;SDS011;42426;46.104;19.656;2023-04-24T00:10:06;11.90;;;9.45;;
56122;SDS011;42426;46.104;19.656;2023-04-24T00:12:34;12.85;;;8.82;;
56122;SDS011;42426;46.104;19.656;2023-04-24T00:14:59;11.90;;;9.00;;
56122;SDS011;42426;46.104;19.656;2023-04-24T00:17:26;15.25;;;10.45;;
56122;SDS011;42426;46.104;19.656;2023-04-24T00:19:51;10.23;;;8.98;;
56122;SDS011;42426;46.104;19.656;2023-04-24T00:22:24;12.57;;;9.25;;
56122;SDS011;42426;46.104;19.656;2023-04-24T00:24:51;15.15;;;9.88;;
56122;SDS011;42426;46.104;19.656;2023-04-24T00:27:18;9.30;;;8.02;;
56122;SDS011;42426;46.104;19.656;2023-04-24T00:29:44;10.82;;;8.40;;
56122;SDS011;42426;46.104;19.656;2023-04-24T00:32:11;10.68;;;8.43;;
56122;SDS011;42426;46.104;19.656;2023-04-24T00:34:37;12.00;;;8.73;;
56122;SDS011;42426;46.104;19.656;2023-04-24T00:37:03;9.43;;;8.18;;
56122;SDS011;42426;46.104;19.656;2023-04-24T00:39:30;10.80;;;8.65;;
56122;SDS011;42426;46.104;19.656;2023-04-24T00:41:56;12.18;;;8.80;;
56122;SDS011;42426;46.104;19.656;2023-04-24T00:44:22;10.90;;;8.65;;
56122;SDS011;42426;46.104;19.656;2023-04-24T00:46:48;13.50;;;8.95;;
56122;SDS011;42426;46.104;19.656;2023-04-24T00:49:17;10.07;;;8.20;;
56122;SDS011;42426;46.104;19.656;2023-04-24T00:51:44;11.98;;;8.30;;
56122;SDS011;42426;46.104;19.656;2023-04-24T00:54:11;16.10;;;10.05;;
56122;SDS011;42426;46.104;19.656;2023-04-24T00:56:37;9.93;;;8.93;;
56122;SDS011;42426;46.104;19.656;2023-04-24T00:59:03;12.27;;;9.50;;
56122;SDS011;42426;46.104;19.656;2023-04-24T01:01:30;12.85;;;8.80;;
56122;SDS011;42426;46.104;19.656;2023-04-24T01:03:57;14.82;;;9.15;;
56122;SDS011;42426;46.104;19.656;2023-04-24T01:06:23;16.75;;;11.18;;
56122;SDS011;42426;46.104;19.656;2023-04-24T01:08:53;11.52;;;8.55;;
56122;SDS011;42426;46.104;19.656;2023-04-24T01:11:23;11.00;;;8.68;;
56122;SDS011;42426;46.104;19.656;2023-04-24T01:13:50;11.10;;;8.32;;
56122;SDS011;42426;46.104;19.656;2023-04-24T01:16:16;11.77;;;8.80;;
56122;SDS011;42426;46.104;19.656;2023-04-24T01:18:42;13.85;;;9.32;;
56122;SDS011;42426;46.104;19.656;2023-04-24T01:21:09;12.18;;;9.27;;
56122;SDS011;42426;46.104;19.656;2023-04-24T01:23:40;12.68;;;8.45;;
56122;SDS011;42426;46.104;19.656;2023-04-24T01:26:05;13.60;;;9.40;;
56122;SDS011;42426;46.104;19.656;2023-04-24T01:28:31;10.75;;;8.07;;
56122;SDS011;42426;46.104;19.656;2023-04-24T01:30:58;13.30;;;8.82;;
56122;SDS011;42426;46.104;19.656;2023-04-24T01:33:24;13.23;;;9.25;;
56122;SDS011;42426;46.104;19.656;2023-04-24T01:35:51;12.10;;;9.40;;
56122;SDS011;42426;46.104;19.656;2023-04-24T01:38:17;12.77;;;8.93;;
56122;SDS011;42426;46.104;19.656;2023-04-24T01:40:43;12.30;;;10.25;;
56122;SDS011;42426;46.104;19.656;2023-04-24T01:43:08;12.85;;;9.65;;
56122;SDS011;42426;46.104;19.656;2023-04-24T01:45:34;12.13;;;10.25;;
56122;SDS011;42426;46.104;19.656;2023-04-24T01:48:00;14.70;;;9.80;;
56122;SDS011;42426;46.104;19.656;2023-04-24T01:50:26;11.95;;;10.23;;
56122;SDS011;42426;46.104;19.656;2023-04-24T01:52:52;15.85;;;10.85;;
56122;SDS011;42426;46.104;19.656;2023-04-24T01:55:18;13.10;;;9.63;;
56122;SDS011;42426;46.104;19.656;2023-04-24T01:57:44;12.35;;;10.77;;
56122;SDS011;42426;46.104;19.656;2023-04-24T02:00:10;11.32;;;10.10;;
56122;SDS011;42426;46.104;19.656;2023-04-24T02:02:37;15.07;;;10.80;;
56122;SDS011;42426;46.104;19.656;2023-04-24T02:05:07;11.88;;;9.60;;
56122;SDS011;42426;46.104;19.656;2023-04-24T02:07:34;14.88;;;10.80;;
56122;SDS011;42426;46.104;19.656;2023-04-24T02:10:01;11.75;;;9.40;;
56122;SDS011;42426;46.104;19.656;2023-04-24T02:12:26;13.98;;;10.40;;
56122;SDS011;42426;46.104;19.656;2023-04-24T02:14:52;13.50;;;11.07;;
56122;SDS011;42426;46.104;19.656;2023-04-24T02:17:18;13.65;;;10.98;;
56122;SDS011;42426;46.104;19.656;2023-04-24T02:19:44;15.05;;;10.93;;
56122;SDS011;42426;46.104;19.656;2023-04-24T02:22:11;13.52;;;10.75;;
56122;SDS011;42426;46.104;19.656;2023-04-24T02:24:37;13.95;;;10.88;;
56122;SDS011;42426;46.104;19.656;2023-04-24T02:27:03;12.68;;;9.23;;
56122;SDS011;42426;46.104;19.656;2023-04-24T02:29:30;12.55;;;10.48;;
56122;SDS011;42426;46.104;19.656;2023-04-24T02:31:56;13.02;;;10.30;;
56122;SDS011;42426;46.104;19.656;2023-04-24T02:34:23;16.02;;;10.93;;
56122;SDS011;42426;46.104;19.656;2023-04-24T02:36:50;13.95;;;10.60;;
56122;SDS011;42426;46.104;19.656;2023-04-24T02:39:15;14.23;;;10.10;;
56122;SDS011;42426;46.104;19.656;2023-04-24T02:41:42;13.48;;;10.35;;
56122;SDS011;42426;46.104;19.656;2023-04-24T02:44:08;13.93;;;10.65;;
56122;SDS011;42426;46.104;19.656;2023-04-24T02:46:34;12.80;;;10.20;;
56122;SDS011;42426;46.104;19.656;2023-04-24T02:49:00;12.52;;;10.40;;
56122;SDS011;42426;46.104;19.656;2023-04-24T02:51:26;13.27;;;10.63;;
56122;SDS011;42426;46.104;19.656;2023-04-24T02:53:52;12.27;;;10.20;;
56122;SDS011;42426;46.104;19.656;2023-04-24T02:56:18;13.68;;;11.70;;
56122;SDS011;42426;46.104;19.656;2023-04-24T02:58:44;16.05;;;10.88;;
56122;SDS011;42426;46.104;19.656;2023-04-24T03:01:09;14.15;;;10.60;;
56122;SDS011;42426;46.104;19.656;2023-04-24T03:03:36;13.43;;;10.32;;
56122;SDS011;42426;46.104;19.656;2023-04-24T03:06:02;16.90;;;11.55;;
56122;SDS011;42426;46.104;19.656;2023-04-24T03:08:30;16.52;;;11.60;;
56122;SDS011;42426;46.104;19.656;2023-04-24T03:10:59;13.57;;;10.95;;
56122;SDS011;42426;46.104;19.656;2023-04-24T03:13:25;13.43;;;11.38;;
56122;SDS011;42426;46.104;19.656;2023-04-24T03:15:52;14.15;;;11.02;;
56122;SDS011;42426;46.104;19.656;2023-04-24T03:18:19;14.70;;;11.10;;
56122;SDS011;42426;46.104;19.656;2023-04-24T03:20:49;13.00;;;11.38;;
56122;SDS011;42426;46.104;19.656;2023-04-24T03:23:15;15.02;;;10.60;;
56122;SDS011;42426;46.104;19.656;2023-04-24T03:25:41;17.33;;;11.88;;
56122;SDS011;42426;46.104;19.656;2023-04-24T03:28:08;16.40;;;11.60;;
56122;SDS011;42426;46.104;19.656;2023-04-24T03:30:34;15.68;;;11.40;;
56122;SDS011;42426;46.104;19.656;2023-04-24T03:33:00;16.23;;;11.10;;
56122;SDS011;42426;46.104;19.656;2023-04-24T03:35:26;17.67;;;10.82;;
56122;SDS011;42426;46.104;19.656;2023-04-24T03:37:51;12.48;;;10.88;;
56122;SDS011;42426;46.104;19.656;2023-04-24T03:40:17;15.25;;;11.88;;
56122;SDS011;42426;46.104;19.656;2023-04-24T03:42:43;16.35;;;10.77;;
56122;SDS011;42426;46.104;19.656;2023-04-24T03:45:09;11.88;;;10.27;;
56122;SDS011;42426;46.104;19.656;2023-04-24T03:47:35;17.80;;;10.68;;
56122;SDS011;42426;46.104;19.656;2023-04-24T03:50:01;12.00;;;10.35;;
56122;SDS011;42426;46.104;19.656;2023-04-24T03:52:27;14.13;;;11.13;;
56122;SDS011;42426;46.104;19.656;2023-04-24T03:54:53;18.13;;;13.25;;
56122;SDS011;42426;46.104;19.656;2023-04-24T03:57:18;17.35;;;12.55;;
56122;SDS011;42426;46.104;19.656;2023-04-24T03:59:45;18.08;;;13.20;;
56122;SDS011;42426;46.104;19.656;2023-04-24T04:02:11;16.20;;;12.82;;
56122;SDS011;42426;46.104;19.656;2023-04-24T04:04:37;14.35;;;12.85;;
56122;SDS011;42426;46.104;19.656;2023-04-24T04:07:02;19.13;;;11.77;;
56122;SDS011;42426;46.104;19.656;2023-04-24T04:09:28;17.73;;;13.07;;
56122;SDS011;42426;46.104;19.656;2023-04-24T04:11:54;15.25;;;12.77;;
56122;SDS011;42426;46.104;19.656;2023-04-24T04:14:21;18.33;;;12.50;;
56122;SDS011;42426;46.104;19.656;2023-04-24T04:16:50;17.48;;;12.73;;
56122;SDS011;42426;46.104;19.656;2023-04-24T04:19:16;19.77;;;13.85;;
56122;SDS011;42426;46.104;19.656;2023-04-24T04:21:41;17.60;;;12.70;;
56122;SDS011;42426;46.104;19.656;2023-04-24T04:24:07;18.10;;;11.98;;
56122;SDS011;42426;46.104;19.656;2023-04-24T04:26:34;17.30;;;12.50;;
56122;SDS011;42426;46.104;19.656;2023-04-24T04:29:00;16.70;;;12.18;;
56122;SDS011;42426;46.104;19.656;2023-04-24T04:31:26;15.50;;;12.75;;
56122;SDS011;42426;46.104;19.656;2023-04-24T04:33:52;15.23;;;11.48;;
56122;SDS011;42426;46.104;19.656;2023-04-24T04:36:19;16.58;;;12.00;;
56122;SDS011;42426;46.104;19.656;2023-04-24T04:38:45;16.63;;;13.05;;
56122;SDS011;42426;46.104;19.656;2023-04-24T04:41:13;14.77;;;11.85;;
56122;SDS011;42426;46.104;19.656;2023-04-24T04:43:38;14.13;;;12.25;;
56122;SDS011;42426;46.104;19.656;2023-04-24T04:46:05;17.90;;;12.10;;
56122;SDS011;42426;46.104;19.656;2023-04-24T04:48:33;14.23;;;11.35;;
56122;SDS011;42426;46.104;19.656;2023-04-24T04:50:59;13.32;;;11.05;;
56122;SDS011;42426;46.104;19.656;2023-04-24T04:53:25;17.35;;;12.40;;
56122;SDS011;42426;46.104;19.656;2023-04-24T04:55:51;17.95;;;11.65;;
56122;SDS011;42426;46.104;19.656;2023-04-24T04:58:17;16.83;;;13.13;;
56122;SDS011;42426;46.104;19.656;2023-04-24T05:00:45;14.82;;;11.73;;
56122;SDS011;42426;46.104;19.656;2023-04-24T05:03:11;17.65;;;12.52;;
56122;SDS011;42426;46.104;19.656;2023-04-24T05:05:37;16.05;;;11.90;;
56122;SDS011;42426;46.104;19.656;2023-04-24T05:08:05;16.83;;;12.02;;
56122;SDS011;42426;46.104;19.656;2023-04-24T05:10:32;17.13;;;12.80;;
56122;SDS011;42426;46.104;19.656;2023-04-24T05:12:58;21.30;;;12.30;;
56122;SDS011;42426;46.104;19.656;2023-04-24T05:15:24;16.58;;;12.05;;
56122;SDS011;42426;46.104;19.656;2023-04-24T05:17:50;19.92;;;13.40;;
56122;SDS011;42426;46.104;19.656;2023-04-24T05:20:15;13.65;;;12.05;;
56122;SDS011;42426;46.104;19.656;2023-04-24T05:22:41;17.17;;;12.38;;
56122;SDS011;42426;46.104;19.656;2023-04-24T05:25:07;15.55;;;11.95;;
56122;SDS011;42426;46.104;19.656;2023-04-24T05:27:33;15.88;;;12.10;;
56122;SDS011;42426;46.104;19.656;2023-04-24T05:29:59;15.80;;;12.00;;
56122;SDS011;42426;46.104;19.656;2023-04-24T05:32:25;16.25;;;11.95;;
56122;SDS011;42426;46.104;19.656;2023-04-24T05:34:53;15.65;;;12.25;;
56122;SDS011;42426;46.104;19.656;2023-04-24T05:37:18;18.48;;;11.57;;
56122;SDS011;42426;46.104;19.656;2023-04-24T05:39:44;16.67;;;12.02;;
56122;SDS011;42426;46.104;19.656;2023-04-24T05:42:10;21.25;;;12.55;;
56122;SDS011;42426;46.104;19.656;2023-04-24T05:44:36;13.77;;;11.43;;
56122;SDS011;42426;46.104;19.656;2023-04-24T05:47:02;15.00;;;11.27;;
56122;SDS011;42426;46.104;19.656;2023-04-24T05:49:28;14.75;;;11.45;;
56122;SDS011;42426;46.104;19.656;2023-04-24T05:51:53;15.73;;;11.60;;
56122;SDS011;42426;46.104;19.656;2023-04-24T05:54:19;16.60;;;13.77;;
56122;SDS011;42426;46.104;19.656;2023-04-24T05:56:47;17.38;;;14.15;;
56122;SDS011;42426;46.104;19.656;2023-04-24T05:59:15;20.73;;;13.48;;
56122;SDS011;42426;46.104;19.656;2023-04-24T06:01:41;18.48;;;14.60;;
56122;SDS011;42426;46.104;19.656;2023-04-24T06:04:06;23.40;;;15.18;;
56122;SDS011;42426;46.104;19.656;2023-04-24T06:06:32;19.00;;;13.85;;
56122;SDS011;42426;46.104;19.656;2023-04-24T06:08:59;19.23;;;13.23;;
56122;SDS011;42426;46.104;19.656;2023-04-24T06:11:25;17.63;;;13.95;;
56122;SDS011;42426;46.104;19.656;2023-04-24T06:13:51;20.60;;;14.05;;
56122;SDS011;42426;46.104;19.656;2023-04-24T06:16:17;16.92;;;14.32;;
56122;SDS011;42426;46.104;19.656;2023-04-24T06:18:43;17.40;;;13.43;;
56122;SDS011;42426;46.104;19.656;2023-04-24T06:21:09;21.33;;;16.10;;
56122;SDS011;42426;46.104;19.656;2023-04-24T06:23:35;21.65;;;15.20;;
56122;SDS011;42426;46.104;19.656;2023-04-24T06:26:02;26.92;;;16.63;;
56122;SDS011;42426;46.104;19.656;2023-04-24T06:28:28;24.30;;;18.10;;
56122;SDS011;42426;46.104;19.656;2023-04-24T06:30:53;23.65;;;16.90;;
56122;SDS011;42426;46.104;19.656;2023-04-24T06:33:19;23.05;;;16.98;;
56122;SDS011;42426;46.104;19.656;2023-04-24T06:35:45;19.48;;;14.95;;
56122;SDS011;42426;46.104;19.656;2023-04-24T06:38:11;22.50;;;16.17;;
56122;SDS011;42426;46.104;19.656;2023-04-24T06:40:38;24.60;;;18.75;;
56122;SDS011;42426;46.104;19.656;2023-04-24T06:43:03;20.17;;;15.45;;
56122;SDS011;42426;46.104;19.656;2023-04-24T06:45:29;19.95;;;14.68;;
56122;SDS011;42426;46.104;19.656;2023-04-24T06:47:55;19.13;;;14.43;;
56122;SDS011;42426;46.104;19.656;2023-04-24T06:50:22;19.30;;;14.25;;
56122;SDS011;42426;46.104;19.656;2023-04-24T06:52:48;20.30;;;15.75;;
56122;SDS011;42426;46.104;19.656;2023-04-24T06:55:14;24.52;;;15.32;;
56122;SDS011;42426;46.104;19.656;2023-04-24T06:57:41;20.27;;;15.55;;
56122;SDS011;42426;46.104;19.656;2023-04-24T07:00:10;17.27;;;14.60;;
56122;SDS011;42426;46.104;19.656;2023-04-24T07:02:37;19.20;;;15.13;;
56122;SDS011;42426;46.104;19.656;2023-04-24T07:05:03;20.13;;;13.95;;
56122;SDS011;42426;46.104;19.656;2023-04-24T07:07:30;22.38;;;15.68;;
56122;SDS011;42426;46.104;19.656;2023-04-24T07:09:56;17.85;;;13.38;;
56122;SDS011;42426;46.104;19.656;2023-04-24T07:12:22;21.77;;;14.00;;
56122;SDS011;42426;46.104;19.656;2023-04-24T07:14:48;21.08;;;15.57;;
56122;SDS011;42426;46.104;19.656;2023-04-24T07:17:15;19.48;;;14.77;;
56122;SDS011;42426;46.104;19.656;2023-04-24T07:19:41;19.52;;;15.10;;
56122;SDS011;42426;46.104;19.656;2023-04-24T07:22:07;19.00;;;14.85;;
56122;SDS011;42426;46.104;19.656;2023-04-24T07:24:32;23.17;;;16.55;;
56122;SDS011;42426;46.104;19.656;2023-04-24T07:26:58;19.95;;;15.32;;
56122;SDS011;42426;46.104;19.656;2023-04-24T07:29:27;23.52;;;15.15;;
56122;SDS011;42426;46.104;19.656;2023-04-24T07:31:52;21.70;;;15.57;;
56122;SDS011;42426;46.104;19.656;2023-04-24T07:34:19;20.15;;;15.13;;
56122;SDS011;42426;46.104;19.656;2023-04-24T07:36:50;25.30;;;16.77;;
56122;SDS011;42426;46.104;19.656;2023-04-24T07:39:17;18.50;;;15.77;;
56122;SDS011;42426;46.104;19.656;2023-04-24T07:41:43;23.40;;;17.20;;
56122;SDS011;42426;46.104;19.656;2023-04-24T07:44:09;18.58;;;16.65;;
56122;SDS011;42426;46.104;19.656;2023-04-24T07:46:35;17.98;;;15.00;;
56122;SDS011;42426;46.104;19.656;2023-04-24T07:49:01;19.35;;;16.55;;
56122;SDS011;42426;46.104;19.656;2023-04-24T07:51:27;20.80;;;15.48;;
56122;SDS011;42426;46.104;19.656;2023-04-24T07:53:53;20.95;;;16.45;;
56122;SDS011;42426;46.104;19.656;2023-04-24T07:56:21;20.05;;;16.77;;
56122;SDS011;42426;46.104;19.656;2023-04-24T07:58:48;22.10;;;16.42;;
56122;SDS011;42426;46.104;19.656;2023-04-24T08:01:16;21.75;;;15.45;;
56122;SDS011;42426;46.104;19.656;2023-04-24T08:03:42;22.58;;;16.92;;
56122;SDS011;42426;46.104;19.656;2023-04-24T08:06:09;21.08;;;15.52;;
56122;SDS011;42426;46.104;19.656;2023-04-24T08:08:35;24.08;;;16.30;;
56122;SDS011;42426;46.104;19.656;2023-04-24T08:11:02;22.08;;;15.95;;
56122;SDS011;42426;46.104;19.656;2023-04-24T08:13:30;18.80;;;14.82;;
56122;SDS011;42426;46.104;19.656;2023-04-24T08:15:56;19.92;;;14.35;;
56122;SDS011;42426;46.104;19.656;2023-04-24T08:21:13;20.63;;;16.30;;
56122;SDS011;42426;46.104;19.656;2023-04-24T08:23:42;20.90;;;15.98;;
56122;SDS011;42426;46.104;19.656;2023-04-24T08:26:08;22.10;;;15.38;;
56122;SDS011;42426;46.104;19.656;2023-04-24T08:31:39;20.50;;;14.50;;
56122;SDS011;42426;46.104;19.656;2023-04-24T08:34:05;22.15;;;17.05;;
56122;SDS011;42426;46.104;19.656;2023-04-24T08:36:31;21.05;;;15.30;;
56122;SDS011;42426;46.104;19.656;2023-04-24T08:38:58;18.42;;;13.90;;
56122;SDS011;42426;46.104;19.656;2023-04-24T08:41:26;22.38;;;16.10;;
56122;SDS011;42426;46.104;19.656;2023-04-24T08:43:52;22.95;;;15.80;;
56122;SDS011;42426;46.104;19.656;2023-04-24T08:46:21;20.88;;;15.43;;
56122;SDS011;42426;46.104;19.656;2023-04-24T08:48:48;19.85;;;14.68;;
56122;SDS011;42426;46.104;19.656;2023-04-24T08:51:15;22.20;;;15.10;;
56122;SDS011;42426;46.104;19.656;2023-04-24T08:53:42;18.08;;;14.85;;
56122;SDS011;42426;46.104;19.656;2023-04-24T08:56:08;19.92;;;15.18;;
56122;SDS011;42426;46.104;19.656;2023-04-24T08:58:35;21.65;;;15.02;;
56122;SDS011;42426;46.104;19.656;2023-04-24T09:01:01;19.15;;;14.93;;
56122;SDS011;42426;46.104;19.656;2023-04-24T09:03:28;18.25;;;13.50;;
56122;SDS011;42426;46.104;19.656;2023-04-24T09:05:54;18.02;;;14.10;;
56122;SDS011;42426;46.104;19.656;2023-04-24T09:08:22;18.83;;;14.60;;
56122;SDS011;42426;46.104;19.656;2023-04-24T09:10:50;19.05;;;15.23;;
56122;SDS011;42426;46.104;19.656;2023-04-24T09:13:16;19.50;;;14.77;;
56122;SDS011;42426;46.104;19.656;2023-04-24T09:15:42;22.90;;;14.38;;
56122;SDS011;42426;46.104;19.656;2023-04-24T09:18:08;18.92;;;14.32;;
56122;SDS011;42426;46.104;19.656;2023-04-24T09:20:34;18.42;;;15.30;;
56122;SDS011;42426;46.104;19.656;2023-04-24T09:23:02;21.23;;;16.30;;
56122;SDS011;42426;46.104;19.656;2023-04-24T09:25:31;20.45;;;17.15;;
56122;SDS011;42426;46.104;19.656;2023-04-24T09:28:01;20.55;;;16.48;;
56122;SDS011;42426;46.104;19.656;2023-04-24T09:30:28;19.67;;;15.68;;
56122;SDS011;42426;46.104;19.656;2023-04-24T09:33:10;19.88;;;15.30;;
56122;SDS011;42426;46.104;19.656;2023-04-24T09:35:36;18.15;;;13.50;;
56122;SDS011;42426;46.104;19.656;2023-04-24T09:38:02;17.48;;;14.55;;
56122;SDS011;42426;46.104;19.656;2023-04-24T09:40:28;17.67;;;13.93;;
56122;SDS011;42426;46.104;19.656;2023-04-24T09:42:55;18.58;;;14.48;;
56122;SDS011;42426;46.104;19.656;2023-04-24T09:45:36;19.55;;;14.25;;
56122;SDS011;42426;46.104;19.656;2023-04-24T09:48:02;17.45;;;13.68;;
56122;SDS011;42426;46.104;19.656;2023-04-24T09:50:30;19.10;;;13.23;;
56122;SDS011;42426;46.104;19.656;2023-04-24T09:53:03;25.08;;;17.42;;
56122;SDS011;42426;46.104;19.656;2023-04-24T09:55:30;26.27;;;17.08;;
56122;SDS011;42426;46.104;19.656;2023-04-24T09:58:00;22.67;;;16.88;;
56122;SDS011;42426;46.104;19.656;2023-04-24T10:00:31;19.15;;;15.00;;
56122;SDS011;42426;46.104;19.656;2023-04-24T10:03:01;19.48;;;14.07;;
56122;SDS011;42426;46.104;19.656;2023-04-24T10:05:31;20.35;;;14.02;;
56122;SDS011;42426;46.104;19.656;2023-04-24T10:10:29;19.65;;;13.52;;
56122;SDS011;42426;46.104;19.656;2023-04-24T10:12:58;20.33;;;15.00;;
56122;SDS011;42426;46.104;19.656;2023-04-24T10:15:25;33.35;;;21.88;;
56122;SDS011;42426;46.104;19.656;2023-04-24T10:17:52;22.95;;;16.77;;
56122;SDS011;42426;46.104;19.656;2023-04-24T10:20:19;23.30;;;18.08;;
56122;SDS011;42426;46.104;19.656;2023-04-24T10:22:50;23.00;;;17.35;;
56122;SDS011;42426;46.104;19.656;2023-04-24T10:25:19;22.45;;;15.82;;
56122;SDS011;42426;46.104;19.656;2023-04-24T10:27:47;22.45;;;15.80;;
56122;SDS011;42426;46.104;19.656;2023-04-24T10:30:13;23.00;;;17.27;;
56122;SDS011;42426;46.104;19.656;2023-04-24T10:32:39;22.83;;;15.52;;
56122;SDS011;42426;46.104;19.656;2023-04-24T10:35:06;21.73;;;15.18;;
56122;SDS011;42426;46.104;19.656;2023-04-24T10:37:36;20.67;;;15.07;;
56122;SDS011;42426;46.104;19.656;2023-04-24T10:40:07;20.65;;;15.65;;
56122;SDS011;42426;46.104;19.656;2023-04-24T10:42:33;24.27;;;17.48;;
56122;SDS011;42426;46.104;19.656;2023-04-24T10:45:05;28.10;;;17.45;;
56122;SDS011;42426;46.104;19.656;2023-04-24T10:47:40;20.85;;;14.55;;
56122;SDS011;42426;46.104;19.656;2023-04-24T10:50:10;24.65;;;17.42;;
56122;SDS011;42426;46.104;19.656;2023-04-24T10:52:48;21.90;;;15.55;;
56122;SDS011;42426;46.104;19.656;2023-04-24T10:58:06;19.40;;;13.63;;
56122;SDS011;42426;46.104;19.656;2023-04-24T11:00:32;17.08;;;13.80;;
56122;SDS011;42426;46.104;19.656;2023-04-24T11:02:58;14.25;;;11.70;;
56122;SDS011;42426;46.104;19.656;2023-04-24T11:05:49;15.63;;;12.13;;
56122;SDS011;42426;46.104;19.656;2023-04-24T11:08:26;15.68;;;11.90;;
56122;SDS011;42426;46.104;19.656;2023-04-24T11:10:59;16.48;;;12.18;;
56122;SDS011;42426;46.104;19.656;2023-04-24T11:14:14;19.73;;;13.27;;
56122;SDS011;42426;46.104;19.656;2023-04-24T11:16:30;16.27;;;12.32;;
56122;SDS011;42426;46.104;19.656;2023-04-24T11:24:26;16.35;;;12.35;;
56122;SDS011;42426;46.104;19.656;2023-04-24T11:35:04;16.40;;;11.60;;
56122;SDS011;42426;46.104;19.656;2023-04-24T11:37:38;22.27;;;10.40;;
56122;SDS011;42426;46.104;19.656;2023-04-24T11:40:10;13.65;;;10.57;;
56122;SDS011;42426;46.104;19.656;2023-04-24T11:42:40;14.38;;;10.43;;
56122;SDS011;42426;46.104;19.656;2023-04-24T11:45:07;15.32;;;9.85;;
56122;SDS011;42426;46.104;19.656;2023-04-24T11:47:38;13.30;;;9.73;;
56122;SDS011;42426;46.104;19.656;2023-04-24T11:50:10;13.23;;;10.75;;
56122;SDS011;42426;46.104;19.656;2023-04-24T11:52:39;14.13;;;9.85;;
56122;SDS011;42426;46.104;19.656;2023-04-24T11:55:22;12.80;;;10.25;;
56122;SDS011;42426;46.104;19.656;2023-04-24T11:57:49;12.57;;;9.25;;
56122;SDS011;42426;46.104;19.656;2023-04-24T12:00:23;11.63;;;9.27;;
56122;SDS011;42426;46.104;19.656;2023-04-24T12:03:07;13.75;;;8.98;;
56122;SDS011;42426;46.104;19.656;2023-04-24T12:05:36;13.07;;;9.57;;
56122;SDS011;42426;46.104;19.656;2023-04-24T12:08:03;12.68;;;9.57;;
56122;SDS011;42426;46.104;19.656;2023-04-24T12:10:30;12.40;;;9.90;;
56122;SDS011;42426;46.104;19.656;2023-04-24T12:12:58;18.10;;;13.93;;
56122;SDS011;42426;46.104;19.656;2023-04-24T12:15:25;18.45;;;13.95;;
56122;SDS011;42426;46.104;19.656;2023-04-24T12:17:52;24.00;;;19.08;;
56122;SDS011;42426;46.104;19.656;2023-04-24T12:20:31;30.40;;;22.17;;
56122;SDS011;42426;46.104;19.656;2023-04-24T12:23:01;27.90;;;20.92;;
56122;SDS011;42426;46.104;19.656;2023-04-24T12:25:28;27.25;;;20.75;;
56122;SDS011;42426;46.104;19.656;2023-04-24T12:30:25;74.03;;;52.03;;
56122;SDS011;42426;46.104;19.656;2023-04-24T12:32:57;75.93;;;53.97;;
56122;SDS011;42426;46.104;19.656;2023-04-24T12:35:27;56.85;;;42.60;;
56122;SDS011;42426;46.104;19.656;2023-04-24T12:37:53;71.32;;;52.35;;
56122;SDS011;42426;46.104;19.656;2023-04-24T12:40:20;32.50;;;25.33;;
56122;SDS011;42426;46.104;19.656;2023-04-24T12:42:50;81.10;;;61.13;;
56122;SDS011;42426;46.104;19.656;2023-04-24T12:45:17;85.10;;;64.38;;
56122;SDS011;42426;46.104;19.656;2023-04-24T12:47:44;74.90;;;55.83;;
56122;SDS011;42426;46.104;19.656;2023-04-24T12:50:12;99.95;;;73.70;;
56122;SDS011;42426;46.104;19.656;2023-04-24T12:52:39;27.08;;;21.02;;
56122;SDS011;42426;46.104;19.656;2023-04-24T12:55:06;51.65;;;38.00;;
56122;SDS011;42426;46.104;19.656;2023-04-24T12:57:33;55.85;;;40.25;;
56122;SDS011;42426;46.104;19.656;2023-04-24T13:00:00;68.57;;;51.60;;
56122;SDS011;42426;46.104;19.656;2023-04-24T13:02:29;28.05;;;19.25;;
56122;SDS011;42426;46.104;19.656;2023-04-24T13:04:56;54.00;;;39.08;;
56122;SDS011;42426;46.104;19.656;2023-04-24T13:07:23;29.48;;;22.17;;
56122;SDS011;42426;46.104;19.656;2023-04-24T13:09:50;87.43;;;63.35;;
56122;SDS011;42426;46.104;19.656;2023-04-24T13:12:16;46.97;;;35.42;;
56122;SDS011;42426;46.104;19.656;2023-04-24T13:14:42;30.75;;;23.80;;
56122;SDS011;42426;46.104;19.656;2023-04-24T13:17:08;44.40;;;33.10;;
56122;SDS011;42426;46.104;19.656;2023-04-24T13:19:38;38.63;;;30.70;;
56122;SDS011;42426;46.104;19.656;2023-04-24T13:22:06;46.40;;;34.60;;
56122;SDS011;42426;46.104;19.656;2023-04-24T13:24:33;31.98;;;23.08;;
56122;SDS011;42426;46.104;19.656;2023-04-24T13:27:00;51.20;;;39.40;;
56122;SDS011;42426;46.104;19.656;2023-04-24T13:29:26;26.98;;;20.65;;
56122;SDS011;42426;46.104;19.656;2023-04-24T13:31:52;52.33;;;37.55;;
56122;SDS011;42426;46.104;19.656;2023-04-24T13:34:24;23.90;;;18.23;;
56122;SDS011;42426;46.104;19.656;2023-04-24T13:36:52;15.32;;;12.25;;
56122;SDS011;42426;46.104;19.656;2023-04-24T13:39:18;33.53;;;25.15;;
56122;SDS011;42426;46.104;19.656;2023-04-24T13:41:44;41.03;;;30.50;;
56122;SDS011;42426;46.104;19.656;2023-04-24T13:44:14;82.32;;;59.30;;
56122;SDS011;42426;46.104;19.656;2023-04-24T13:46:44;71.18;;;54.17;;
56122;SDS011;42426;46.104;19.656;2023-04-24T13:49:11;48.90;;;33.47;;
56122;SDS011;42426;46.104;19.656;2023-04-24T13:51:38;45.85;;;33.47;;
56122;SDS011;42426;46.104;19.656;2023-04-24T13:54:05;38.50;;;27.65;;
56122;SDS011;42426;46.104;19.656;2023-04-24T13:56:31;93.95;;;72.40;;
56122;SDS011;42426;46.104;19.656;2023-04-24T13:58:56;133.02;;;104.72;;
56122;SDS011;42426;46.104;19.656;2023-04-24T14:01:22;72.45;;;54.67;;
56122;SDS011;42426;46.104;19.656;2023-04-24T14:03:52;58.35;;;43.63;;
56122;SDS011;42426;46.104;19.656;2023-04-24T14:06:18;49.60;;;35.25;;
56122;SDS011;42426;46.104;19.656;2023-04-24T14:08:49;83.90;;;62.42;;
56122;SDS011;42426;46.104;19.656;2023-04-24T14:11:15;44.30;;;32.50;;
56122;SDS011;42426;46.104;19.656;2023-04-24T14:13:42;31.67;;;21.15;;
56122;SDS011;42426;46.104;19.656;2023-04-24T14:16:08;68.57;;;53.90;;
56122;SDS011;42426;46.104;19.656;2023-04-24T14:18:35;50.55;;;37.08;;
56122;SDS011;42426;46.104;19.656;2023-04-24T14:21:01;94.78;;;73.25;;
56122;SDS011;42426;46.104;19.656;2023-04-24T14:23:28;48.90;;;38.03;;
56122;SDS011;42426;46.104;19.656;2023-04-24T14:25:53;82.15;;;60.38;;
56122;SDS011;42426;46.104;19.656;2023-04-24T14:28:19;50.75;;;35.13;;
56122;SDS011;42426;46.104;19.656;2023-04-24T14:30:46;51.25;;;36.67;;
56122;SDS011;42426;46.104;19.656;2023-04-24T14:33:12;38.72;;;29.27;;
56122;SDS011;42426;46.104;19.656;2023-04-24T14:35:39;48.42;;;37.78;;
56122;SDS011;42426;46.104;19.656;2023-04-24T14:38:07;116.53;;;91.13;;